createdAt,value
2023-05-14T00:02:18.147Z,68.40
2023-05-14T00:04:46.624Z,68.60
2023-05-14T00:07:13.781Z,68.80
2023-05-14T00:09:40.888Z,68.60
2023-05-14T00:12:08.608Z,68.80
2023-05-14T00:14:35.733Z,69.00
2023-05-14T00:17:02.992Z,69.20
2023-05-14T00:19:29.968Z,69.30
2023-05-14T00:21:57.283Z,69.40
2023-05-14T00:24:24.982Z,69.40
2023-05-14T00:26:52.119Z,69.60
2023-05-14T00:29:21.418Z,69.80
2023-05-14T00:31:48.610Z,69.80
2023-05-14T00:34:15.611Z,70.00
2023-05-14T00:36:42.562Z,70.00
2023-05-14T00:39:09.807Z,70.10
2023-05-14T00:41:36.808Z,70.10
2023-05-14T00:44:04.391Z,70.10
2023-05-14T00:46:31.619Z,70.10
2023-05-14T00:48:59.601Z,70.10
2023-05-14T00:51:27.246Z,70.00
2023-05-14T00:53:55.516Z,70.10
2023-05-14T00:56:23.163Z,70.00
2023-05-14T00:58:50.595Z,69.90
2023-05-14T01:01:18.110Z,69.80
2023-05-14T01:03:45.902Z,69.80
2023-05-14T01:06:24.411Z,69.70
2023-05-14T01:09:23.436Z,69.80
2023-05-14T01:12:28.916Z,70.00
2023-05-14T01:15:16.555Z,70.10
2023-05-14T01:17:51.187Z,69.50
2023-05-14T01:20:18.291Z,69.80
2023-05-14T01:22:45.401Z,69.80
2023-05-14T01:25:12.499Z,69.90
2023-05-14T01:28:13.567Z,70.80
2023-05-14T01:30:58.325Z,70.70
2023-05-14T01:33:28.269Z,70.60
2023-05-14T01:35:56.060Z,70.40
2023-05-14T01:38:24.412Z,70.40
2023-05-14T01:40:52.693Z,70.60
2023-05-14T01:43:20.429Z,70.70
2023-05-14T01:45:47.601Z,70.80
2023-05-14T01:48:15.445Z,70.90
2023-05-14T01:50:42.710Z,71.10
2023-05-14T01:53:09.708Z,71.20
2023-05-14T01:55:36.970Z,71.30
2023-05-14T01:58:04.634Z,71.40
2023-05-14T02:00:32.042Z,71.60
2023-05-14T02:02:59.429Z,71.50
2023-05-14T02:05:26.631Z,71.50
2023-05-14T02:07:54.920Z,71.50
2023-05-14T02:10:22.045Z,71.30
2023-05-14T02:12:49.944Z,72.00
2023-05-14T02:15:17.430Z,71.30
2023-05-14T02:17:44.686Z,71.10
2023-05-14T02:20:13.014Z,71.00
2023-05-14T02:22:45.401Z,70.90
2023-05-14T02:25:12.461Z,70.80
2023-05-14T02:27:39.597Z,70.60
2023-05-14T02:30:07.560Z,70.50
2023-05-14T02:32:34.808Z,70.40
2023-05-14T02:35:02.362Z,70.20
2023-05-14T02:37:29.247Z,70.00
2023-05-14T02:39:56.568Z,69.80
2023-05-14T02:42:23.841Z,69.50
2023-05-14T02:44:52.572Z,69.30
2023-05-14T02:47:19.797Z,69.20
2023-05-14T02:49:46.991Z,68.90
2023-05-14T02:52:14.048Z,68.60
2023-05-14T02:54:41.479Z,68.50
2023-05-14T02:57:08.732Z,68.30
2023-05-14T02:59:36.191Z,68.10
2023-05-14T03:02:03.952Z,67.90
2023-05-14T03:04:31.545Z,67.80
2023-05-14T03:06:58.781Z,67.80
2023-05-14T03:09:26.000Z,67.70
2023-05-14T03:11:53.074Z,67.50
2023-05-14T03:14:20.093Z,67.40
2023-05-14T03:16:47.159Z,67.30
2023-05-14T03:19:14.390Z,67.40
2023-05-14T03:21:41.707Z,67.10
2023-05-14T03:24:09.158Z,66.90
2023-05-14T03:26:37.347Z,66.70
2023-05-14T03:29:04.466Z,66.50
2023-05-14T03:31:31.613Z,66.20
2023-05-14T03:33:58.716Z,66.10
2023-05-14T03:36:25.792Z,66.00
2023-05-14T03:38:52.993Z,65.80
2023-05-14T03:41:20.027Z,65.60
2023-05-14T03:43:47.073Z,65.40
2023-05-14T03:46:14.132Z,65.30
2023-05-14T03:48:41.195Z,65.10
2023-05-14T03:51:08.282Z,65.10
2023-05-14T03:53:36.543Z,65.10
2023-05-14T03:56:03.986Z,65.00
2023-05-14T03:58:31.098Z,65.00
2023-05-14T04:01:00.644Z,65.10
2023-05-14T04:03:27.875Z,65.10
2023-05-14T04:05:55.012Z,65.10
2023-05-14T04:08:22.016Z,65.20
2023-05-14T04:10:50.483Z,65.30
2023-05-14T04:13:17.535Z,65.40
2023-05-14T04:15:44.829Z,65.50
2023-05-14T04:18:12.777Z,65.80
2023-05-14T04:20:40.487Z,65.70
2023-05-14T04:23:07.657Z,65.70
2023-05-14T04:25:34.625Z,65.70
2023-05-14T04:28:01.985Z,65.70
2023-05-14T04:30:29.586Z,65.70
2023-05-14T04:32:57.149Z,66.30
2023-05-14T04:35:25.250Z,65.70
2023-05-14T04:37:52.584Z,65.80
2023-05-14T04:40:19.711Z,66.00
2023-05-14T04:42:46.951Z,66.00
2023-05-14T04:45:14.733Z,66.70
2023-05-14T04:47:41.857Z,66.00
2023-05-14T04:50:09.745Z,65.90
2023-05-14T04:52:36.947Z,65.90
2023-05-14T04:55:04.510Z,66.00
2023-05-14T04:57:31.871Z,66.00
2023-05-14T04:59:59.004Z,65.90
2023-05-14T05:02:26.009Z,65.80
2023-05-14T05:04:53.232Z,65.70
2023-05-14T05:07:20.258Z,65.50
2023-05-14T05:09:47.419Z,65.20
2023-05-14T05:12:14.355Z,65.10
2023-05-14T05:14:41.548Z,65.00
2023-05-14T05:17:08.803Z,65.00
2023-05-14T05:19:43.701Z,64.90
2023-05-14T05:22:11.892Z,65.10
2023-05-14T05:24:38.862Z,65.10
2023-05-14T05:27:06.078Z,64.90
2023-05-14T05:29:33.499Z,64.60
2023-05-14T05:32:00.883Z,64.30
2023-05-14T05:34:28.068Z,64.00
2023-05-14T05:36:55.305Z,63.60
2023-05-14T05:39:22.631Z,63.30
2023-05-14T05:41:49.987Z,63.00
2023-05-14T05:44:16.881Z,62.50
2023-05-14T05:46:43.922Z,61.80
2023-05-14T05:49:10.929Z,61.30
2023-05-14T05:51:38.221Z,61.10
2023-05-14T05:54:05.353Z,60.50
2023-05-14T05:56:32.640Z,60.30
2023-05-14T05:59:00.772Z,60.00
2023-05-14T06:01:27.982Z,59.60
2023-05-14T06:03:55.093Z,59.40
2023-05-14T06:06:22.146Z,59.00
2023-05-14T06:08:49.340Z,58.50
2023-05-14T06:11:17.245Z,57.90
2023-05-14T06:13:44.457Z,57.40
2023-05-14T06:16:11.582Z,57.10
2023-05-14T06:18:38.578Z,56.70
2023-05-14T06:21:05.510Z,56.30
2023-05-14T06:23:33.385Z,55.60
2023-05-14T06:26:00.774Z,55.20
2023-05-14T06:28:27.922Z,54.80
2023-05-14T06:30:56.124Z,54.50
2023-05-14T06:33:35.777Z,54.00
2023-05-14T06:36:10.552Z,53.60
2023-05-14T06:38:51.506Z,53.20
2023-05-14T06:41:18.819Z,52.40
2023-05-14T06:43:57.452Z,52.60
2023-05-14T06:46:33.711Z,52.20
2023-05-14T06:49:16.763Z,51.50
2023-05-14T06:51:53.850Z,51.50
2023-05-14T06:55:08.751Z,50.90
2023-05-14T06:57:42.386Z,50.60
2023-05-14T07:00:10.161Z,50.00
2023-05-14T07:02:37.552Z,49.60
2023-05-14T07:05:05.178Z,49.80
2023-05-14T07:07:32.350Z,49.30
2023-05-14T07:09:59.638Z,49.00
2023-05-14T07:12:27.415Z,49.10
2023-05-14T07:14:54.336Z,49.00
2023-05-14T07:17:21.580Z,48.70
2023-05-14T07:19:49.037Z,48.00
2023-05-14T07:22:16.708Z,47.70
2023-05-14T07:24:45.399Z,47.30
2023-05-14T07:27:12.464Z,46.90
2023-05-14T07:29:48.092Z,46.70
2023-05-14T07:32:17.042Z,46.10
2023-05-14T07:34:46.350Z,45.60
2023-05-14T07:37:13.461Z,45.20
2023-05-14T07:39:41.668Z,44.20
2023-05-14T07:42:09.106Z,43.40
2023-05-14T07:44:36.049Z,43.40
2023-05-14T07:47:04.224Z,43.30
2023-05-14T07:49:31.704Z,42.50
2023-05-14T07:52:06.678Z,41.00
2023-05-14T07:54:36.868Z,40.70
2023-05-14T07:57:04.607Z,40.50
2023-05-14T07:59:32.130Z,40.20
2023-05-14T08:01:59.469Z,39.60
2023-05-14T08:04:26.994Z,39.00
2023-05-14T08:07:02.931Z,37.90
2023-05-14T08:09:30.351Z,37.70
2023-05-14T08:11:57.868Z,37.60
2023-05-14T08:14:27.797Z,37.10
2023-05-14T08:16:55.365Z,36.70
2023-05-14T08:19:24.736Z,36.70
2023-05-14T08:21:54.653Z,35.70
2023-05-14T08:24:21.854Z,35.00
2023-05-14T08:26:49.137Z,33.90
2023-05-14T08:29:16.862Z,33.50
2023-05-14T08:32:19.364Z,32.90
2023-05-14T08:34:50.900Z,32.90
2023-05-14T08:37:19.334Z,32.90
2023-05-14T08:39:46.551Z,32.70
2023-05-14T08:42:18.256Z,31.90
2023-05-14T08:45:12.973Z,31.50
2023-05-14T08:51:44.819Z,30.30
2023-05-14T08:54:18.968Z,31.20
2023-05-14T08:56:53.716Z,30.00
2023-05-14T08:59:21.115Z,30.20
2023-05-14T09:02:18.046Z,29.80
2023-05-14T09:04:45.622Z,29.10
2023-05-14T09:07:21.513Z,30.60
2023-05-14T09:09:54.226Z,30.00
2023-05-14T09:12:29.156Z,29.90
2023-05-14T09:14:56.306Z,28.80
2023-05-14T09:17:27.655Z,28.20
2023-05-14T09:19:55.248Z,27.60
2023-05-14T09:22:22.619Z,27.50
2023-05-14T09:25:12.082Z,27.30
2023-05-14T09:27:39.661Z,26.70
2023-05-14T09:30:14.630Z,27.00
2023-05-14T09:32:46.138Z,26.30
2023-05-14T09:35:41.365Z,26.30
2023-05-14T09:38:08.641Z,25.40
2023-05-14T09:40:39.549Z,25.70
2023-05-14T09:43:12.828Z,25.20
2023-05-14T09:45:47.970Z,23.60
2023-05-14T09:48:24.514Z,23.00
2023-05-14T09:50:52.449Z,22.40
2023-05-14T09:53:19.764Z,22.50
2023-05-14T09:55:47.286Z,22.40
2023-05-14T09:58:16.799Z,23.00
2023-05-14T10:03:30.992Z,22.10
2023-05-14T10:06:04.648Z,21.90
2023-05-14T10:08:36.269Z,21.60
2023-05-14T10:11:29.697Z,21.60
2023-05-14T10:14:07.548Z,21.40
2023-05-14T10:16:45.717Z,21.00
2023-05-14T10:19:16.053Z,21.70
2023-05-14T10:22:08.029Z,21.40
2023-05-14T10:24:35.884Z,21.70
2023-05-14T10:27:03.365Z,22.40
2023-05-14T10:29:38.319Z,22.60
2023-05-14T10:32:10.057Z,22.10
2023-05-14T10:34:47.266Z,22.30
2023-05-14T10:37:25.786Z,22.10
2023-05-14T10:39:54.744Z,21.80
2023-05-14T10:42:41.484Z,21.60
2023-05-14T10:45:11.837Z,21.60
2023-05-14T10:47:51.610Z,21.80
2023-05-14T10:50:20.564Z,22.00
2023-05-14T10:52:48.979Z,22.30
2023-05-14T10:55:19.595Z,22.50
2023-05-14T10:57:47.396Z,22.70
2023-05-14T11:00:18.378Z,23.00
2023-05-14T11:02:45.637Z,23.30
2023-05-14T11:05:17.096Z,23.50
2023-05-14T11:07:51.707Z,23.70
2023-05-14T11:10:22.984Z,24.00
2023-05-14T11:12:52.206Z,24.40
2023-05-14T11:15:22.635Z,24.70
2023-05-14T11:17:51.532Z,25.00
2023-05-14T11:20:19.400Z,25.30
2023-05-14T11:22:48.366Z,25.80
2023-05-14T11:25:15.793Z,26.00
2023-05-14T11:27:48.275Z,26.20
2023-05-14T11:30:19.363Z,26.40
2023-05-14T11:32:48.851Z,26.90
2023-05-14T11:35:17.902Z,26.90
2023-05-14T11:37:54.393Z,26.90
2023-05-14T11:40:22.077Z,27.10
2023-05-14T11:42:53.695Z,27.10
2023-05-14T11:45:30.274Z,27.20
2023-05-14T11:47:57.737Z,27.30
2023-05-14T11:50:26.371Z,27.40
2023-05-14T11:52:57.768Z,27.70
2023-05-14T11:55:24.803Z,27.90
2023-05-14T11:57:55.770Z,27.90
2023-05-14T12:00:27.220Z,28.20
2023-05-14T12:02:57.725Z,28.30
2023-05-14T12:05:30.135Z,28.60
2023-05-14T12:07:58.391Z,28.70
2023-05-14T12:10:25.848Z,28.90
2023-05-14T12:12:57.587Z,29.10
2023-05-14T12:15:27.378Z,28.90
2023-05-14T12:18:24.765Z,28.50
2023-05-14T12:21:19.990Z,27.90
2023-05-14T12:23:49.260Z,27.60
2023-05-14T12:26:25.703Z,27.10
2023-05-14T12:29:17.049Z,26.70
2023-05-14T12:34:39.655Z,26.30
2023-05-14T12:37:15.210Z,26.10
2023-05-14T12:39:47.091Z,26.20
2023-05-14T12:42:48.397Z,26.50
2023-05-14T12:45:20.930Z,26.10
2023-05-14T12:48:09.668Z,26.10
2023-05-14T12:51:00.399Z,26.00
2023-05-14T12:53:27.748Z,25.70
2023-05-14T12:56:02.959Z,25.70
2023-05-14T12:58:30.514Z,25.50
2023-05-14T13:03:44.800Z,25.70
2023-05-14T13:06:16.386Z,25.70
2023-05-14T13:08:49.209Z,25.70
2023-05-14T13:11:18.663Z,25.90
2023-05-14T13:13:52.478Z,25.90
2023-05-14T13:16:21.702Z,26.10
2023-05-14T13:18:49.361Z,26.40
2023-05-14T13:21:20.091Z,26.50
2023-05-14T13:23:49.323Z,26.80
2023-05-14T13:26:21.084Z,27.00
2023-05-14T13:28:55.018Z,26.90
2023-05-14T13:31:24.895Z,27.10
2023-05-14T13:33:54.625Z,27.10
2023-05-14T13:36:24.578Z,27.20
2023-05-14T13:38:52.001Z,27.80
2023-05-14T13:41:19.078Z,27.40
2023-05-14T13:43:46.695Z,27.30
2023-05-14T13:46:30.749Z,27.40
2023-05-14T13:49:06.791Z,27.50
2023-05-14T13:51:34.536Z,27.80
2023-05-14T13:54:12.202Z,28.10
2023-05-14T13:56:44.265Z,28.30
2023-05-14T13:59:18.305Z,28.40
2023-05-14T14:01:48.718Z,28.40
2023-05-14T14:04:36.237Z,28.30
2023-05-14T14:07:09.459Z,28.50
2023-05-14T14:09:40.253Z,28.40
2023-05-14T14:12:13.121Z,28.10
2023-05-14T14:14:44.282Z,28.00
2023-05-14T14:17:12.833Z,27.90
2023-05-14T14:19:47.037Z,28.40
2023-05-14T14:22:31.347Z,27.90
2023-05-14T14:25:25.430Z,27.80
2023-05-14T14:31:29.005Z,27.60
2023-05-14T14:33:58.698Z,27.50
2023-05-14T14:36:30.710Z,27.30
2023-05-14T14:39:05.590Z,27.30
2023-05-14T14:41:35.906Z,27.10
2023-05-14T14:44:02.930Z,26.80
2023-05-14T14:46:33.452Z,26.50
2023-05-14T14:49:35.906Z,26.40
2023-05-14T14:52:18.134Z,26.30
2023-05-14T14:54:48.786Z,26.30
2023-05-14T14:57:20.711Z,26.30
2023-05-14T15:00:12.440Z,26.20
2023-05-14T15:02:44.669Z,25.80
2023-05-14T15:05:18.201Z,25.80
2023-05-14T15:07:50.084Z,25.60
2023-05-14T15:10:17.413Z,25.40
2023-05-14T15:12:51.937Z,25.50
2023-05-14T15:15:22.570Z,25.50
2023-05-14T15:17:51.753Z,25.70
2023-05-14T15:20:20.669Z,25.80
2023-05-14T15:22:51.634Z,26.00
2023-05-14T15:25:27.970Z,25.90
2023-05-14T15:27:55.195Z,26.20
2023-05-14T15:30:26.601Z,26.20
2023-05-14T15:32:56.319Z,26.40
2023-05-14T15:35:24.055Z,26.40
2023-05-14T15:37:51.484Z,26.70
2023-05-14T15:40:19.534Z,26.70
2023-05-14T15:42:47.493Z,26.60
2023-05-14T15:45:15.256Z,26.70
2023-05-14T15:47:42.659Z,26.70
2023-05-14T15:50:10.602Z,26.90
2023-05-14T15:52:39.632Z,26.90
2023-05-14T15:55:13.374Z,27.00
2023-05-14T15:57:40.526Z,27.10
2023-05-14T16:00:12.708Z,27.50
2023-05-14T16:02:40.139Z,27.50
2023-05-14T16:05:19.429Z,27.60
2023-05-14T16:07:51.409Z,27.70
2023-05-14T16:10:21.309Z,27.60
2023-05-14T16:12:55.214Z,27.60
2023-05-14T16:15:22.951Z,27.70
2023-05-14T16:17:50.112Z,28.20
2023-05-14T16:20:17.251Z,28.20
2023-05-14T16:22:44.751Z,28.30
2023-05-14T16:25:12.479Z,28.40
2023-05-14T16:27:39.578Z,28.50
2023-05-14T16:30:08.157Z,28.70
2023-05-14T16:32:35.450Z,28.80
2023-05-14T16:35:03.286Z,28.50
2023-05-14T16:37:31.386Z,28.70
2023-05-14T16:39:59.344Z,28.80
2023-05-14T16:42:26.511Z,28.90
2023-05-14T16:44:53.993Z,28.70
2023-05-14T16:47:21.638Z,28.70
2023-05-14T16:49:49.393Z,28.60
2023-05-14T16:52:16.727Z,28.70
2023-05-14T16:54:43.859Z,28.90
2023-05-14T16:57:10.968Z,29.00
2023-05-14T16:59:44.189Z,29.10
2023-05-14T17:02:11.240Z,29.20
2023-05-14T17:04:38.796Z,29.40
2023-05-14T17:07:06.034Z,29.70
2023-05-14T17:09:33.137Z,29.80
2023-05-14T17:12:01.297Z,30.00
2023-05-14T17:14:28.370Z,30.20
2023-05-14T17:16:55.880Z,30.40
2023-05-14T17:19:23.051Z,30.50
2023-05-14T17:21:50.919Z,30.90
2023-05-14T17:24:18.023Z,31.10
2023-05-14T17:26:45.375Z,31.30
2023-05-14T17:29:12.339Z,32.30
2023-05-14T17:31:39.432Z,31.90
2023-05-14T17:34:06.856Z,32.20
2023-05-14T17:36:34.082Z,32.50
2023-05-14T17:39:01.303Z,32.70
2023-05-14T17:41:28.467Z,32.80
2023-05-14T17:43:55.451Z,33.00
2023-05-14T17:46:22.677Z,33.20
2023-05-14T17:48:49.797Z,33.60
2023-05-14T17:51:17.021Z,33.90
2023-05-14T17:53:43.960Z,34.20
2023-05-14T17:56:10.940Z,34.30
2023-05-14T17:58:38.178Z,34.60
2023-05-14T18:01:06.406Z,34.90
2023-05-14T18:03:33.827Z,35.60
2023-05-14T18:06:00.944Z,35.20
2023-05-14T18:08:30.508Z,35.60
2023-05-14T18:11:00.281Z,35.90
2023-05-14T18:13:27.870Z,36.10
2023-05-14T18:15:56.702Z,36.30
2023-05-14T18:18:24.733Z,36.50
2023-05-14T18:20:52.754Z,36.70
2023-05-14T18:23:20.057Z,36.90
2023-05-14T18:25:48.068Z,37.10
2023-05-14T18:28:16.001Z,37.40
2023-05-14T18:30:45.779Z,37.50
2023-05-14T18:33:13.392Z,37.70
2023-05-14T18:35:43.830Z,38.00
2023-05-14T18:38:12.715Z,38.30
2023-05-14T18:40:40.053Z,38.40
2023-05-14T18:43:07.680Z,38.60
2023-05-14T18:45:34.786Z,38.90
2023-05-14T18:48:01.857Z,39.30
2023-05-14T18:50:30.649Z,39.60
2023-05-14T18:52:57.741Z,40.40
2023-05-14T18:55:25.124Z,40.20
2023-05-14T18:57:52.356Z,40.50
2023-05-14T19:00:19.794Z,40.80
2023-05-14T19:02:46.811Z,41.20
2023-05-14T19:05:15.594Z,42.00
2023-05-14T19:07:43.694Z,41.70
2023-05-14T19:10:11.197Z,42.10
2023-05-14T19:12:38.260Z,42.30
2023-05-14T19:15:06.580Z,42.50
2023-05-14T19:17:33.935Z,42.60
2023-05-14T19:20:01.094Z,43.00
2023-05-14T19:22:28.065Z,43.00
2023-05-14T19:24:55.092Z,43.10
2023-05-14T19:27:24.069Z,43.30
2023-05-14T19:29:51.036Z,43.60
2023-05-14T19:32:18.356Z,43.80
2023-05-14T19:34:45.416Z,43.90
2023-05-14T19:37:12.672Z,44.10
2023-05-14T19:39:39.911Z,44.40
2023-05-14T19:42:06.889Z,44.50
2023-05-14T19:44:34.071Z,44.80
2023-05-14T19:47:02.147Z,45.10
2023-05-14T19:49:29.048Z,45.40
2023-05-14T19:51:56.109Z,45.50
2023-05-14T19:54:23.251Z,45.80
2023-05-14T19:56:50.438Z,46.10
2023-05-14T19:59:17.495Z,46.30
2023-05-14T20:01:44.489Z,46.50
2023-05-14T20:04:11.689Z,46.90
2023-05-14T20:06:40.191Z,47.10
2023-05-14T20:09:07.544Z,47.40
2023-05-14T20:11:35.715Z,47.60
2023-05-14T20:14:02.812Z,48.10
2023-05-14T20:16:29.920Z,48.20
2023-05-14T20:18:57.093Z,48.50
2023-05-14T20:21:41.436Z,48.70
2023-05-14T20:28:20.670Z,49.50
2023-05-14T20:34:17.366Z,50.40
2023-05-14T20:37:07.154Z,50.00
2023-05-14T20:42:59.238Z,51.20
2023-05-14T20:45:39.450Z,51.00
2023-05-14T20:48:32.249Z,51.70
2023-05-14T20:51:12.776Z,52.20
2023-05-14T20:53:51.981Z,52.40
2023-05-14T20:56:34.175Z,52.80
2023-05-14T20:59:08.831Z,53.00
2023-05-14T21:01:35.910Z,53.50
2023-05-14T21:04:03.297Z,53.70
2023-05-14T21:06:30.473Z,54.10
2023-05-14T21:08:57.424Z,54.40
2023-05-14T21:11:25.535Z,54.90
2023-05-14T21:13:52.815Z,55.20
2023-05-14T21:16:20.248Z,55.40
2023-05-14T21:18:54.991Z,55.70
2023-05-14T21:21:28.113Z,56.20
2023-05-14T21:24:19.076Z,56.60
2023-05-14T21:29:34.998Z,57.10
2023-05-14T21:32:26.149Z,57.50
2023-05-14T21:35:05.421Z,58.10
2023-05-14T21:38:05.729Z,57.80
2023-05-14T21:40:40.464Z,58.00
2023-05-14T21:43:21.331Z,58.30
2023-05-14T21:46:19.108Z,58.60
2023-05-14T21:49:09.192Z,58.90
2023-05-14T21:51:38.978Z,59.10
2023-05-14T22:00:27.565Z,59.70
2023-05-14T22:03:11.594Z,59.60
2023-05-14T22:05:49.263Z,59.30
2023-05-14T22:08:41.146Z,59.90
2023-05-14T22:11:16.215Z,60.50
2023-05-14T22:13:44.733Z,61.00
2023-05-14T22:16:14.062Z,61.20
2023-05-14T22:18:43.766Z,61.60
2023-05-14T22:21:10.803Z,61.90
2023-05-14T22:23:38.186Z,62.20
2023-05-14T22:26:05.631Z,62.50
2023-05-14T22:28:32.548Z,62.70
2023-05-14T22:31:00.548Z,62.70
2023-05-14T22:33:27.748Z,63.00
2023-05-14T22:35:54.813Z,63.30
2023-05-14T22:38:22.130Z,63.60
2023-05-14T22:40:49.585Z,63.90
2023-05-14T22:43:16.799Z,64.10
2023-05-14T22:45:44.488Z,64.50
2023-05-14T22:48:11.561Z,64.70
2023-05-14T22:50:38.879Z,64.90
2023-05-14T22:53:05.786Z,65.20
2023-05-14T22:55:34.736Z,65.60
2023-05-14T22:58:02.168Z,65.70
2023-05-14T23:00:29.287Z,65.80
2023-05-14T23:02:56.844Z,66.00
2023-05-14T23:05:24.269Z,66.10
2023-05-14T23:07:53.381Z,66.30
2023-05-14T23:10:20.371Z,66.60
2023-05-14T23:12:47.416Z,66.70
2023-05-14T23:15:14.735Z,66.80
2023-05-14T23:17:42.182Z,66.90
2023-05-14T23:20:13.340Z,66.80
2023-05-14T23:22:40.960Z,67.00
2023-05-14T23:25:08.593Z,67.20
2023-05-14T23:27:35.634Z,67.20
2023-05-14T23:30:04.221Z,67.20
2023-05-14T23:32:31.244Z,67.20
2023-05-14T23:34:58.246Z,67.20
2023-05-14T23:37:25.443Z,67.20
2023-05-14T23:39:52.820Z,67.20
2023-05-14T23:42:20.111Z,67.40
2023-05-14T23:44:47.195Z,67.40
2023-05-14T23:47:14.394Z,67.50
2023-05-14T23:49:41.755Z,67.70
2023-05-14T23:52:09.064Z,67.90
2023-05-14T23:54:36.049Z,68.00
2023-05-14T23:57:04.486Z,68.20
2023-05-14T23:59:31.609Z,68.60
